Time;durP1;ratioP1;P1;durP2;ratioP2;P2;SDS_P1;SDS_P2;PMS_P1;PMS_P2;Temp;Humidity;BMP_temperature;BMP_pressure;BME280_temperature;BME280_humidity;BME280_pressure;Samples;Min_cycle;Max_cycle;Signal;HPM_P1;HPM_P2
2024/02/05 00:02:30;;;;;;;105.47;54.17;;;;;;;;;;10531116;28;20419;-89
2024/02/05 00:07:32;;;;;;;102.68;53.05;;;;;;;;;;10524887;28;20401;-90
2024/02/05 00:12:36;;;;;;;102.20;53.20;;;;;;;;;;10524675;28;20468;-89
2024/02/05 00:17:39;;;;;;;97.70;52.60;;;;;;;;;;10528032;28;20468;-89
2024/02/05 00:22:42;;;;;;;98.53;50.10;;;;;;;;;;10516338;28;20442;-89
2024/02/05 00:27:46;;;;;;;103.55;51.67;;;;;;;;;;10522898;28;20419;-89
2024/02/05 00:32:48;;;;;;;96.00;52.00;;;;;;;;;;10525207;28;20443;-89
2024/02/05 00:37:51;;;;;;;101.57;51.08;;;;;;;;;;10518798;28;21039;-88
2024/02/05 00:42:55;;;;;;;97.65;48.95;;;;;;;;;;10533567;28;20414;-89
2024/02/05 00:47:57;;;;;;;93.85;48.08;;;;;;;;;;10528740;28;20487;-89
2024/02/05 00:53:00;;;;;;;88.63;45.70;;;;;;;;;;10543433;28;20409;-89
2024/02/05 00:58:04;;;;;;;87.00;46.40;;;;;;;;;;10527200;28;20399;-90
2024/02/05 01:03:07;;;;;;;89.25;46.67;;;;;;;;;;10524705;28;20418;-89
2024/02/05 01:08:10;;;;;;;87.90;46.92;;;;;;;;;;10528524;28;20388;-89
2024/02/05 01:13:14;;;;;;;92.35;48.00;;;;;;;;;;10536856;28;20419;-89
2024/02/05 01:18:16;;;;;;;93.00;47.45;;;;;;;;;;10527441;28;20427;-89
2024/02/05 01:23:19;;;;;;;96.00;48.30;;;;;;;;;;10520380;28;20971;-88
2024/02/05 01:28:23;;;;;;;88.13;45.80;;;;;;;;;;10506514;28;20409;-89
2024/02/05 01:33:25;;;;;;;90.10;47.65;;;;;;;;;;10533351;22;20488;-89
2024/02/05 01:38:28;;;;;;;90.18;45.83;;;;;;;;;;10537571;28;20396;-89
2024/02/05 01:43:32;;;;;;;90.05;45.22;;;;;;;;;;10537064;28;20476;-89
2024/02/05 01:48:37;;;;;;;97.87;48.23;;;;;;;;;;10539744;28;20397;-89
2024/02/05 01:53:41;;;;;;;90.57;46.70;;;;;;;;;;10534804;28;20420;-89
2024/02/05 01:58:45;;;;;;;91.13;45.57;;;;;;;;;;10535255;28;20959;-87
2024/02/05 02:03:50;;;;;;;82.80;44.13;;;;;;;;;;10539635;28;20431;-89
2024/02/05 02:08:53;;;;;;;81.72;43.58;;;;;;;;;;10544256;28;20439;-89
2024/02/05 02:13:57;;;;;;;81.65;43.17;;;;;;;;;;10540445;28;20416;-89
2024/02/05 02:19:03;;;;;;;87.90;43.15;;;;;;;;;;10541530;28;20758;-89
2024/02/05 02:24:08;;;;;;;83.85;42.35;;;;;;;;;;10538950;28;20463;-89
2024/02/05 02:29:10;;;;;;;83.07;42.22;;;;;;;;;;10540414;28;20422;-88
2024/02/05 02:34:20;;;;;;;79.77;41.50;;;;;;;;;;10557512;28;20406;-89
2024/02/05 02:39:30;;;;;;;79.57;41.05;;;;;;;;;;10573260;28;20763;-88
2024/02/05 02:44:34;;;;;;;78.50;40.33;;;;;;;;;;10565587;28;25104;-87
2024/02/05 02:49:36;;;;;;;77.18;39.92;;;;;;;;;;10574720;28;20413;-89
2024/02/05 02:54:40;;;;;;;72.73;38.00;;;;;;;;;;10575323;28;20418;-89
2024/02/05 02:59:42;;;;;;;76.32;39.20;;;;;;;;;;10565800;28;20782;-89
2024/02/05 03:04:45;;;;;;;76.03;40.30;;;;;;;;;;10581858;28;20490;-88
2024/02/05 03:09:49;;;;;;;74.25;38.80;;;;;;;;;;10582536;28;20428;-89
2024/02/05 03:14:51;;;;;;;75.00;38.47;;;;;;;;;;10572365;28;20491;-88
2024/02/05 03:19:54;;;;;;;73.57;38.92;;;;;;;;;;10578671;28;20436;-89
2024/02/05 03:24:57;;;;;;;74.95;38.03;;;;;;;;;;10578571;28;20399;-88
2024/02/05 03:30:00;;;;;;;74.23;37.40;;;;;;;;;;10568834;28;20429;-87
2024/02/05 03:35:02;;;;;;;71.60;37.67;;;;;;;;;;10576666;28;20438;-89
2024/02/05 03:40:07;;;;;;;70.10;36.50;;;;;;;;;;10577919;28;20472;-88
2024/02/05 03:45:11;;;;;;;67.80;36.77;;;;;;;;;;10583018;28;20447;-88
2024/02/05 03:50:14;;;;;;;68.40;34.90;;;;;;;;;;10577142;28;20749;-89
2024/02/05 03:55:18;;;;;;;64.45;33.28;;;;;;;;;;10572843;28;20494;-89
2024/02/05 04:00:21;;;;;;;58.45;31.83;;;;;;;;;;10579224;28;20424;-89
2024/02/05 04:05:25;;;;;;;59.83;31.50;;;;;;;;;;10577446;28;20903;-89
2024/02/05 04:10:29;;;;;;;62.92;32.00;;;;;;;;;;10576979;28;20421;-89
2024/02/05 04:15:31;;;;;;;56.20;29.55;;;;;;;;;;10578287;28;20425;-89
2024/02/05 04:20:33;;;;;;;52.17;29.05;;;;;;;;;;10584597;28;20429;-88
2024/02/05 04:25:37;;;;;;;49.90;28.00;;;;;;;;;;10587911;28;20406;-88
2024/02/05 04:30:41;;;;;;;54.25;28.73;;;;;;;;;;10579110;28;20402;-89
2024/02/05 04:35:43;;;;;;;55.17;28.03;;;;;;;;;;10582630;28;20422;-90
2024/02/05 04:40:47;;;;;;;48.75;27.20;;;;;;;;;;10582234;28;20493;-87
2024/02/05 04:45:49;;;;;;;46.53;26.45;;;;;;;;;;10585955;28;20482;-89
2024/02/05 04:50:52;;;;;;;47.88;26.42;;;;;;;;;;10622498;28;20424;-88
2024/02/05 04:55:55;;;;;;;46.20;24.77;;;;;;;;;;10618817;28;20477;-88
2024/02/05 05:00:58;;;;;;;51.10;26.83;;;;;;;;;;10586038;28;20403;-88
2024/02/05 05:06:00;;;;;;;46.80;24.40;;;;;;;;;;10564454;28;20407;-89
2024/02/05 05:11:04;;;;;;;47.63;25.67;;;;;;;;;;10581227;28;20485;-90
2024/02/05 05:16:07;;;;;;;48.88;26.02;;;;;;;;;;10583065;28;20451;-88
2024/02/05 05:21:10;;;;;;;48.10;24.88;;;;;;;;;;10579542;28;20403;-89
2024/02/05 05:26:14;;;;;;;48.20;24.92;;;;;;;;;;10570851;28;20412;-89
2024/02/05 05:31:17;;;;;;;47.45;25.55;;;;;;;;;;10572747;28;20483;-88
2024/02/05 05:36:19;;;;;;;46.67;24.77;;;;;;;;;;10563105;28;20416;-89
2024/02/05 05:41:23;;;;;;;48.53;25.08;;;;;;;;;;10579927;28;20472;-87
2024/02/05 05:46:27;;;;;;;47.35;24.20;;;;;;;;;;10578744;27;20412;-89
2024/02/05 05:51:30;;;;;;;48.07;24.60;;;;;;;;;;10583674;27;20395;-89
2024/02/05 05:56:33;;;;;;;50.75;25.05;;;;;;;;;;10582594;28;20908;-87
2024/02/05 06:01:36;;;;;;;47.35;24.50;;;;;;;;;;10571655;28;20412;-87
2024/02/05 06:06:38;;;;;;;49.92;24.38;;;;;;;;;;10576149;28;20455;-87
2024/02/05 06:11:42;;;;;;;49.13;24.47;;;;;;;;;;10571975;28;20407;-87
2024/02/05 06:16:44;;;;;;;46.23;22.93;;;;;;;;;;10576047;28;20491;-86
2024/02/05 06:21:47;;;;;;;47.38;24.33;;;;;;;;;;10565290;28;20403;-87
2024/02/05 06:26:51;;;;;;;48.88;24.60;;;;;;;;;;10568135;27;20784;-87
2024/02/05 06:31:53;;;;;;;50.72;25.17;;;;;;;;;;10577526;27;20411;-86
2024/02/05 06:36:56;;;;;;;50.63;25.65;;;;;;;;;;10529149;28;20455;-86
2024/02/05 06:41:59;;;;;;;55.67;27.73;;;;;;;;;;10526323;28;20432;-87
2024/02/05 06:47:03;;;;;;;50.35;26.70;;;;;;;;;;10527918;28;20819;-88
2024/02/05 06:52:06;;;;;;;52.95;27.55;;;;;;;;;;10532379;28;20462;-87
2024/02/05 06:57:10;;;;;;;50.30;25.33;;;;;;;;;;10532317;28;20448;-88
2024/02/05 07:02:13;;;;;;;47.57;25.43;;;;;;;;;;10532280;28;20409;-87
2024/02/05 07:07:15;;;;;;;51.60;26.75;;;;;;;;;;10531925;28;20400;-88
2024/02/05 07:12:20;;;;;;;55.13;27.50;;;;;;;;;;10531341;28;20466;-86
2024/02/05 07:17:31;;;;;;;59.40;28.90;;;;;;;;;;10533623;28;20478;-87
2024/02/05 07:22:34;;;;;;;51.70;28.23;;;;;;;;;;10533841;28;20401;-87
2024/02/05 07:27:39;;;;;;;55.92;27.48;;;;;;;;;;10532440;28;20409;-88
2024/02/05 07:32:41;;;;;;;58.27;29.33;;;;;;;;;;10531546;28;20424;-87
2024/02/05 07:37:43;;;;;;;58.65;29.45;;;;;;;;;;10532694;28;20400;-86
2024/02/05 07:42:47;;;;;;;58.38;28.80;;;;;;;;;;10533048;28;20874;-87
2024/02/05 07:47:49;;;;;;;55.03;29.13;;;;;;;;;;10538768;28;20404;-87
2024/02/05 07:52:52;;;;;;;58.33;29.75;;;;;;;;;;10531368;28;20403;-88
2024/02/05 07:57:55;;;;;;;63.00;29.33;;;;;;;;;;10533150;28;20412;-88
2024/02/05 08:02:58;;;;;;;58.88;29.25;;;;;;;;;;10531380;28;20416;-87
2024/02/05 08:08:00;;;;;;;54.92;28.88;;;;;;;;;;10532236;28;20484;-87
2024/02/05 08:13:05;;;;;;;62.25;30.65;;;;;;;;;;10531280;28;20709;-87
2024/02/05 08:18:07;;;;;;;60.37;28.87;;;;;;;;;;10532643;28;20986;-86
2024/02/05 08:23:10;;;;;;;54.10;28.60;;;;;;;;;;10528589;28;20481;-86
2024/02/05 08:28:14;;;;;;;60.13;30.20;;;;;;;;;;10530783;28;20409;-87
2024/02/05 08:33:16;;;;;;;60.00;30.03;;;;;;;;;;10531869;28;20430;-88
2024/02/05 08:38:18;;;;;;;63.63;30.23;;;;;;;;;;10529214;28;20438;-87
2024/02/05 08:43:23;;;;;;;56.92;29.63;;;;;;;;;;10541927;28;21077;-87
2024/02/05 08:48:25;;;;;;;63.60;31.38;;;;;;;;;;10533707;28;20439;-86
2024/02/05 08:53:28;;;;;;;77.93;35.87;;;;;;;;;;10532507;28;20420;-87
2024/02/05 08:58:31;;;;;;;70.03;34.33;;;;;;;;;;10534531;28;20973;-87
2024/02/05 09:03:34;;;;;;;66.30;34.67;;;;;;;;;;10549820;28;20400;-87
2024/02/05 09:08:36;;;;;;;62.10;33.20;;;;;;;;;;10545376;28;20392;-88
2024/02/05 09:13:40;;;;;;;70.15;35.17;;;;;;;;;;10537936;28;20428;-88
2024/02/05 09:18:43;;;;;;;78.57;37.03;;;;;;;;;;10536115;28;20758;-86
2024/02/05 09:23:45;;;;;;;77.50;38.90;;;;;;;;;;10536549;28;20469;-87
2024/02/05 09:28:49;;;;;;;70.13;35.17;;;;;;;;;;10528877;28;20557;-88
2024/02/05 09:33:51;;;;;;;70.53;34.35;;;;;;;;;;10523869;28;20478;-86
2024/02/05 09:38:53;;;;;;;63.45;33.30;;;;;;;;;;10524951;28;20489;-87
2024/02/05 09:43:57;;;;;;;74.67;36.23;;;;;;;;;;10529245;28;20413;-86
2024/02/05 09:49:03;;;;;;;82.18;37.40;;;;;;;;;;10528393;28;20460;-87
2024/02/05 09:54:06;;;;;;;77.97;36.50;;;;;;;;;;10534953;28;20485;-87
2024/02/05 09:59:10;;;;;;;75.22;36.05;;;;;;;;;;10526179;28;20416;-87
2024/02/05 10:04:15;;;;;;;80.90;37.47;;;;;;;;;;10527080;28;20412;-87
2024/02/05 10:09:18;;;;;;;85.13;39.30;;;;;;;;;;10528254;28;20425;-87
2024/02/05 10:14:25;;;;;;;80.03;37.97;;;;;;;;;;10522429;28;20485;-90
2024/02/05 10:19:27;;;;;;;86.10;38.60;;;;;;;;;;10523132;28;20412;-87
2024/02/05 10:24:29;;;;;;;81.80;39.47;;;;;;;;;;10525297;28;20408;-87
2024/02/05 10:29:34;;;;;;;86.32;39.70;;;;;;;;;;10523483;28;20410;-87
2024/02/05 10:34:36;;;;;;;80.25;38.25;;;;;;;;;;10545037;28;20450;-88
2024/02/05 10:39:40;;;;;;;85.97;38.00;;;;;;;;;;10575411;28;20399;-87
2024/02/05 10:44:43;;;;;;;85.38;37.80;;;;;;;;;;10575459;28;20436;-88
2024/02/05 10:49:47;;;;;;;84.47;35.90;;;;;;;;;;10575280;28;20455;-87
2024/02/05 10:54:52;;;;;;;77.70;35.33;;;;;;;;;;10575849;28;20782;-87
2024/02/05 10:59:55;;;;;;;77.53;35.10;;;;;;;;;;10579267;28;20403;-87
2024/02/05 11:05:00;;;;;;;76.68;36.20;;;;;;;;;;10573050;28;20406;-87
2024/02/05 11:10:05;;;;;;;77.97;35.17;;;;;;;;;;10577263;28;20402;-86
2024/02/05 11:15:13;;;;;;;77.55;35.75;;;;;;;;;;10569494;28;20414;-86
2024/02/05 11:20:16;;;;;;;74.40;34.30;;;;;;;;;;10573804;28;20433;-88
2024/02/05 11:25:19;;;;;;;73.47;32.97;;;;;;;;;;10570643;28;20904;-86
2024/02/05 11:30:22;;;;;;;71.65;34.03;;;;;;;;;;10568860;28;20467;-86
2024/02/05 11:35:29;;;;;;;73.10;33.70;;;;;;;;;;10543274;28;20460;-87
2024/02/05 11:40:33;;;;;;;75.70;34.03;;;;;;;;;;10534084;28;20416;-86
2024/02/05 11:45:37;;;;;;;73.60;33.38;;;;;;;;;;10529428;28;20469;-87
2024/02/05 11:50:40;;;;;;;71.60;33.95;;;;;;;;;;10530937;28;20477;-86
2024/02/05 11:55:43;;;;;;;71.15;33.10;;;;;;;;;;10527268;28;20926;-87
2024/02/05 12:00:47;;;;;;;67.00;32.28;;;;;;;;;;10531483;28;20424;-87
2024/02/05 12:05:50;;;;;;;66.53;32.73;;;;;;;;;;10536114;28;20422;-86
2024/02/05 12:10:53;;;;;;;70.53;31.42;;;;;;;;;;10530823;28;20411;-87
2024/02/05 12:15:56;;;;;;;63.00;30.83;;;;;;;;;;10514818;28;20503;-86
2024/02/05 12:20:59;;;;;;;62.77;30.03;;;;;;;;;;10517698;28;20432;-85
2024/02/05 12:26:03;;;;;;;61.97;31.25;;;;;;;;;;10519559;28;20416;-86
2024/02/05 12:31:07;;;;;;;65.18;30.52;;;;;;;;;;10515983;28;20496;-85
2024/02/05 12:36:11;;;;;;;60.63;30.33;;;;;;;;;;10520217;28;22077;-86
2024/02/05 12:41:14;;;;;;;63.53;29.13;;;;;;;;;;10528276;28;20496;-86
2024/02/05 12:46:18;;;;;;;60.88;29.52;;;;;;;;;;10525063;28;20918;-84
2024/02/05 12:51:21;;;;;;;55.80;28.07;;;;;;;;;;10532038;28;20396;-85
2024/02/05 12:56:24;;;;;;;62.57;30.63;;;;;;;;;;10533893;28;20524;-85
2024/02/05 13:01:29;;;;;;;65.35;31.60;;;;;;;;;;10533251;28;20413;-86
2024/02/05 13:06:32;;;;;;;60.42;29.88;;;;;;;;;;10536690;28;20434;-87
2024/02/05 13:11:35;;;;;;;60.65;30.90;;;;;;;;;;10537300;28;20439;-86
2024/02/05 13:16:38;;;;;;;73.47;33.47;;;;;;;;;;10518807;28;20486;-86
2024/02/05 13:21:41;;;;;;;57.55;28.05;;;;;;;;;;10533189;28;20392;-87
2024/02/05 13:26:47;;;;;;;55.50;27.55;;;;;;;;;;10526013;28;20466;-84
2024/02/05 13:31:51;;;;;;;62.00;30.13;;;;;;;;;;10522073;28;20462;-85
2024/02/05 13:36:53;;;;;;;56.90;29.10;;;;;;;;;;10571460;28;20438;-86
2024/02/05 13:41:56;;;;;;;57.17;29.35;;;;;;;;;;10574449;28;20878;-86
2024/02/05 13:47:00;;;;;;;52.13;27.10;;;;;;;;;;10568886;28;20398;-86
2024/02/05 13:52:02;;;;;;;55.63;27.60;;;;;;;;;;10574208;28;20448;-86
2024/02/05 13:57:05;;;;;;;52.03;26.80;;;;;;;;;;10556047;28;20454;-84
2024/02/05 14:02:09;;;;;;;53.88;27.80;;;;;;;;;;10558467;28;20510;-86
2024/02/05 14:07:11;;;;;;;52.35;26.45;;;;;;;;;;10560419;28;20426;-87
2024/02/05 14:12:14;;;;;;;55.77;28.60;;;;;;;;;;10568874;28;20432;-85
2024/02/05 14:17:17;;;;;;;64.80;34.35;;;;;;;;;;10568832;28;20420;-86
2024/02/05 14:22:20;;;;;;;61.57;32.47;;;;;;;;;;10561445;28;20446;-85
2024/02/05 14:33:26;;;;;;;63.47;33.60;;;;;;;;;;10550553;28;20400;-84
2024/02/05 14:38:28;;;;;;;57.80;29.67;;;;;;;;;;10526078;28;20516;-85
2024/02/05 14:43:31;;;;;;;56.85;30.58;;;;;;;;;;10522050;28;20823;-87
2024/02/05 14:48:35;;;;;;;63.85;34.03;;;;;;;;;;10526870;28;20495;-87
2024/02/05 14:53:39;;;;;;;61.17;29.42;;;;;;;;;;10528397;28;20424;-86
2024/02/05 14:58:41;;;;;;;56.20;29.93;;;;;;;;;;10530065;28;20452;-86
2024/02/05 15:03:46;;;;;;;58.17;29.63;;;;;;;;;;10526753;28;20755;-86
2024/02/05 15:08:49;;;;;;;57.40;29.25;;;;;;;;;;10522494;28;20444;-86
2024/02/05 15:13:52;;;;;;;64.97;32.17;;;;;;;;;;10528212;28;20404;-85
2024/02/05 15:18:55;;;;;;;57.22;29.83;;;;;;;;;;10532858;28;20699;-86
2024/02/05 15:23:58;;;;;;;59.63;29.57;;;;;;;;;;10537060;28;20388;-86
2024/02/05 15:29:00;;;;;;;60.50;31.55;;;;;;;;;;10530860;28;20443;-87
2024/02/05 15:34:04;;;;;;;63.53;30.60;;;;;;;;;;10530743;28;20404;-86
2024/02/05 15:39:10;;;;;;;61.23;30.13;;;;;;;;;;10530028;28;20446;-86
2024/02/05 15:44:13;;;;;;;57.67;30.02;;;;;;;;;;10516524;28;20522;-86
2024/02/05 15:49:17;;;;;;;63.60;31.40;;;;;;;;;;10513984;28;20469;-87
2024/02/05 15:54:19;;;;;;;62.70;30.23;;;;;;;;;;10527340;28;20401;-86
2024/02/05 15:59:38;;;;;;;68.63;32.45;;;;;;;;;;10526587;28;20474;-86
2024/02/05 16:04:42;;;;;;;73.97;34.45;;;;;;;;;;10524807;28;20401;-87
2024/02/05 16:09:45;;;;;;;72.45;34.45;;;;;;;;;;10524871;28;20528;-88
2024/02/05 16:14:47;;;;;;;71.90;31.83;;;;;;;;;;10522034;28;20453;-88
2024/02/05 16:19:51;;;;;;;68.63;33.10;;;;;;;;;;10520582;28;20930;-87
2024/02/05 16:24:53;;;;;;;68.95;33.15;;;;;;;;;;10529043;28;20862;-88
2024/02/05 16:29:56;;;;;;;68.60;33.03;;;;;;;;;;10519190;28;20481;-85
2024/02/05 16:35:00;;;;;;;69.50;33.00;;;;;;;;;;10498329;28;20444;-85
2024/02/05 16:40:05;;;;;;;79.13;36.25;;;;;;;;;;10502208;28;21088;-85
2024/02/05 16:45:07;;;;;;;68.47;32.85;;;;;;;;;;10517386;28;20475;-87
2024/02/05 16:50:12;;;;;;;68.20;32.47;;;;;;;;;;10517717;28;20446;-87
2024/02/05 16:55:14;;;;;;;64.57;30.02;;;;;;;;;;10514521;28;20501;-87
2024/02/05 17:00:17;;;;;;;68.63;33.17;;;;;;;;;;10511408;28;20440;-85
2024/02/05 17:05:21;;;;;;;64.68;30.90;;;;;;;;;;10506534;28;20991;-86
2024/02/05 17:10:23;;;;;;;64.17;32.20;;;;;;;;;;10509511;28;20452;-85
2024/02/05 17:15:26;;;;;;;65.40;33.93;;;;;;;;;;10509592;28;20446;-84
2024/02/05 17:20:30;;;;;;;67.30;34.20;;;;;;;;;;10509138;28;20529;-84
2024/02/05 17:25:32;;;;;;;67.40;32.77;;;;;;;;;;10511942;28;20772;-86
2024/02/05 17:30:34;;;;;;;73.18;33.03;;;;;;;;;;10517451;28;20473;-85
2024/02/05 17:35:38;;;;;;;72.50;32.50;;;;;;;;;;10549533;27;20462;-85
2024/02/05 17:40:41;;;;;;;66.60;31.73;;;;;;;;;;10559687;27;20435;-84
2024/02/05 17:45:44;;;;;;;68.60;32.20;;;;;;;;;;10563641;27;20806;-85
2024/02/05 17:50:48;;;;;;;64.35;32.65;;;;;;;;;;10562384;27;20973;-86
2024/02/05 17:55:51;;;;;;;74.03;34.57;;;;;;;;;;10539027;28;20507;-86
2024/02/05 18:00:54;;;;;;;80.47;39.13;;;;;;;;;;10560470;27;20499;-85
2024/02/05 18:05:58;;;;;;;80.47;37.87;;;;;;;;;;10563316;27;20976;-87
2024/02/05 18:11:00;;;;;;;76.88;38.22;;;;;;;;;;10560859;28;20777;-87
2024/02/05 18:16:03;;;;;;;81.07;37.40;;;;;;;;;;10556500;28;20586;-86
2024/02/05 18:21:08;;;;;;;85.47;40.00;;;;;;;;;;10562729;27;20430;-87
2024/02/05 18:26:11;;;;;;;80.57;38.63;;;;;;;;;;10555221;28;20961;-87
2024/02/05 18:31:13;;;;;;;76.53;39.30;;;;;;;;;;10562057;27;20457;-86
2024/02/05 18:36:17;;;;;;;77.60;38.33;;;;;;;;;;10566172;27;20442;-85
2024/02/05 18:41:20;;;;;;;81.07;39.70;;;;;;;;;;10575573;28;20410;-85
2024/02/05 18:46:22;;;;;;;91.25;42.63;;;;;;;;;;10562952;27;20411;-87
2024/02/05 18:51:27;;;;;;;115.88;57.78;;;;;;;;;;10561187;28;20515;-88
2024/02/05 18:56:29;;;;;;;88.75;45.13;;;;;;;;;;10567299;27;20458;-88
2024/02/05 19:01:31;;;;;;;94.60;45.60;;;;;;;;;;10565983;27;20446;-85
2024/02/05 19:06:35;;;;;;;93.07;46.72;;;;;;;;;;10559024;28;20464;-85
2024/02/05 19:11:38;;;;;;;97.82;46.85;;;;;;;;;;10558828;28;20403;-85
2024/02/05 19:16:40;;;;;;;93.03;46.35;;;;;;;;;;10554000;28;20447;-83
2024/02/05 19:21:44;;;;;;;99.63;46.65;;;;;;;;;;10563774;28;20887;-86
2024/02/05 19:26:48;;;;;;;91.57;47.03;;;;;;;;;;10561510;28;20916;-88
2024/02/05 19:31:50;;;;;;;102.82;48.22;;;;;;;;;;10560369;28;20450;-87
2024/02/05 19:36:54;;;;;;;90.47;43.92;;;;;;;;;;10563129;28;20450;-88
2024/02/05 19:41:56;;;;;;;101.65;49.25;;;;;;;;;;10579633;28;20410;-87
2024/02/05 19:47:01;;;;;;;91.65;45.75;;;;;;;;;;10577435;28;20777;-88
2024/02/05 19:52:05;;;;;;;102.60;47.60;;;;;;;;;;10561156;28;20620;-87
2024/02/05 19:57:08;;;;;;;98.20;47.28;;;;;;;;;;10560191;28;20507;-87
2024/02/05 20:02:10;;;;;;;100.53;49.03;;;;;;;;;;10555894;28;20474;-88
2024/02/05 20:07:14;;;;;;;92.85;46.97;;;;;;;;;;10563691;28;20917;-87
2024/02/05 20:12:16;;;;;;;101.87;47.60;;;;;;;;;;10565536;28;20411;-87
2024/02/05 20:17:19;;;;;;;95.93;46.33;;;;;;;;;;10561532;28;20916;-86
2024/02/05 20:22:22;;;;;;;102.50;49.10;;;;;;;;;;10563031;28;20408;-86
2024/02/05 20:27:25;;;;;;;102.43;49.95;;;;;;;;;;10564642;28;20904;-85
2024/02/05 20:32:28;;;;;;;101.73;50.23;;;;;;;;;;10562954;28;20438;-84
2024/02/05 20:37:32;;;;;;;107.30;51.88;;;;;;;;;;10557913;28;20912;-84
2024/02/05 20:42:35;;;;;;;99.65;48.33;;;;;;;;;;10562130;28;20527;-84
2024/02/05 20:47:37;;;;;;;105.03;51.73;;;;;;;;;;10554433;28;20472;-83
2024/02/05 20:52:41;;;;;;;101.07;49.20;;;;;;;;;;10575994;28;20499;-83
2024/02/05 20:57:43;;;;;;;112.10;51.63;;;;;;;;;;10556043;28;20565;-84
2024/02/05 21:02:46;;;;;;;105.57;49.77;;;;;;;;;;10552645;28;20499;-85
2024/02/05 21:07:49;;;;;;;99.43;48.87;;;;;;;;;;10552370;28;20864;-84
2024/02/05 21:12:52;;;;;;;100.05;48.97;;;;;;;;;;10558163;27;20446;-84
2024/02/05 21:17:54;;;;;;;100.33;48.07;;;;;;;;;;10559926;28;20499;-83
2024/02/05 21:22:58;;;;;;;101.80;49.13;;;;;;;;;;10564535;28;20434;-84
2024/02/05 21:28:03;;;;;;;99.07;48.20;;;;;;;;;;10555476;28;20456;-83
2024/02/05 21:33:06;;;;;;;100.82;48.55;;;;;;;;;;10558975;28;20987;-84
2024/02/05 21:38:10;;;;;;;105.13;48.80;;;;;;;;;;10531359;28;20482;-84
2024/02/05 21:43:12;;;;;;;108.03;52.22;;;;;;;;;;10526681;28;20452;-84
2024/02/05 21:48:15;;;;;;;108.43;51.97;;;;;;;;;;10524753;28;20517;-84
2024/02/05 21:53:18;;;;;;;104.03;50.27;;;;;;;;;;10525561;28;20513;-84
2024/02/05 21:58:21;;;;;;;107.95;50.75;;;;;;;;;;10521784;28;21022;-83
2024/02/05 22:03:23;;;;;;;113.63;53.13;;;;;;;;;;10527158;28;20440;-83
2024/02/05 22:08:27;;;;;;;102.75;51.15;;;;;;;;;;10522424;28;20969;-83
2024/02/05 22:13:30;;;;;;;104.78;49.33;;;;;;;;;;10522950;28;20485;-86
2024/02/05 22:18:33;;;;;;;107.63;51.88;;;;;;;;;;10520306;28;20987;-86
2024/02/05 22:23:37;;;;;;;110.53;52.58;;;;;;;;;;10524171;28;20894;-85
2024/02/05 22:28:40;;;;;;;109.38;50.97;;;;;;;;;;10524580;28;20457;-86
2024/02/05 22:33:42;;;;;;;103.80;50.43;;;;;;;;;;10548314;28;20394;-86
2024/02/05 22:38:46;;;;;;;108.10;50.27;;;;;;;;;;10575637;28;20446;-85
2024/02/05 22:43:48;;;;;;;103.90;48.38;;;;;;;;;;10573398;28;20402;-85
2024/02/05 22:48:52;;;;;;;105.75;50.05;;;;;;;;;;10566897;28;20434;-85
2024/02/05 22:53:56;;;;;;;97.68;48.03;;;;;;;;;;10568931;28;20908;-86
2024/02/05 22:58:58;;;;;;;102.43;47.63;;;;;;;;;;10573419;28;20418;-85
2024/02/05 23:04:01;;;;;;;102.25;48.55;;;;;;;;;;10567643;28;20456;-85
2024/02/05 23:09:05;;;;;;;93.60;47.13;;;;;;;;;;10569216;28;20826;-86
2024/02/05 23:14:08;;;;;;;99.27;48.70;;;;;;;;;;10564434;28;20976;-85
2024/02/05 23:19:10;;;;;;;111.13;53.05;;;;;;;;;;10570825;28;20920;-85
2024/02/05 23:24:14;;;;;;;105.85;49.28;;;;;;;;;;10572222;28;20471;-85
2024/02/05 23:29:17;;;;;;;103.73;49.63;;;;;;;;;;10564427;28;20981;-86
2024/02/05 23:34:19;;;;;;;101.95;47.22;;;;;;;;;;10569990;28;20410;-84
2024/02/05 23:39:23;;;;;;;111.68;50.25;;;;;;;;;;10569461;28;20446;-85
2024/02/05 23:44:25;;;;;;;100.30;48.22;;;;;;;;;;10572136;28;20434;-86
2024/02/05 23:49:28;;;;;;;101.50;47.95;;;;;;;;;;10573006;28;20459;-85
2024/02/05 23:54:32;;;;;;;107.38;49.97;;;;;;;;;;10572885;28;20402;-85
2024/02/05 23:59:34;;;;;;;106.10;49.42;;;;;;;;;;10572363;28;20480;-85
